| Record Date MM/DD/YYYY | Record Julian Date NNN day of the year | Air Temperature Max (Degrees Fahrenheit F) | Time Max Air Temperature HH:MM:SS This is the time of max air temperature standard time. | Air Temperature Min (Degrees Fahrenheit F) | Time Min Air Temperature HH:MM:SS This is the time of min air temperature standard time. | Air Temperature Observed (Degrees Fahrenheit F) This is an instantaneous reading for air temperature at 7:00:00 standard time. | Relative Humidity Max (Percent) | Time Max Relative Humidity HH:MM:SS This is the time of max relative humidity standard time. | Relative Humidity Min (Percent) | Time Min Relative Humidity HH:MM:SS This is the time of min relative humidity standard time. | Relative Humidity Observed (Percent) This is an instantaneous reading at 7:00:00 standard time. | Precipitation (Inches n.nn) total rain fall that occurred for the day. | Pan Evaporation (Inches n.nn) total evaporation that occured for the day. | Wind Run (Miles) Wind travel for the day. | Wind Speed (Miles Per Hour) Resultant / Average speed for the day. | Wind Direction (Degrees) Resultant Direction for the day | Solar Radiation (Langley's) that occurred for the day. | Soil Temperature Max at 2 inch depth (Degrees Fahrenheit F) that occurred during the day. | Time Max Soil temperature at 2 inches HH:MM:SS This is the time of max 2 inch soil temperature standard time. | Soil Temperature Min at 2 inch depth (Degrees Fahrenheit F) that occurred during the day. | Time Min Soil temperature at 2 inches HH:MM:SS This is the time of min 2 inch soil temperature standard time. | Soil Temperature Observed at 2 inch depth (Degrees Fahrenheit F) This is an instantaneous reading 2 inch soil temperature at 7:00:00 standard time. | Soil Temperature Max at 4 inch depth (Degrees Fahrenheit F) that occurred during the day. | Time Max Soil temperature at 4 inches HH:MM:SS This is the time of max 4 inch soil temperature standard time. | Soil Temperature Min at 4 inch depth (Degrees Fahrenheit F) that occurred during the day. | Time Min Soil temperature at 4 inches HH:MM:SS This is the time of min 4 inch soil temperature standard time. | Soil Temperature Observed at 4 inch depth (Degrees Fahrenheit F) This is an instantaneous reading 4 inch soil temperature at 7:00:00 standard time. | DD50 Degree Days 50 Fahrenheit. | Adjusted DD50 Degree Days 50 Fahrenheit adjusted for latitude. | DD60 Degree Days 60 Fahrenheit. |
|---|---|---|---|---|---|---|---|---|---|---|---|---|---|---|---|---|---|---|---|---|---|---|---|---|---|---|---|---|---|---|
| 04/06/2026 | 96 | 70 | 15:25:00 | 48 | 5:56:04 | 51 | 83 | 21:45:00 | 29 | 15:32:03 | 72 | 0 | 132 | 5.5 | 18 | 575 | 68 | 15:53:04 | 54 | 6:33:05 | 54 | 66 | 17:13:03 | 57 | 7:30:01 | 57 | 9 | 10.08 | 0 | |
| 04/07/2026 | 97 | 76 | 14:14:00 | 51 | 5:56:05 | 54 | 77 | 6:25:04 | 29 | 14:19:01 | 74 | 0 | 125 | 5.2 | 43 | 575 | 74 | 15:08:01 | 54 | 6:24:04 | 54 | 70 | 16:52:05 | 57 | 7:07:03 | 57 | 13.5 | 14.61 | 3.5 | |
| 04/08/2026 | 98 | 81 | 14:05:02 | 55 | 3:37:04 | 58 | 74 | 3:37:02 | 25 | 16:07:04 | 63 | 0 | 155 | 6.5 | 109 | 596 | 77 | 15:22:00 | 58 | 6:38:05 | 58 | 73 | 17:11:02 | 60 | 7:35:05 | 60 | 18 | 19.14 | 8 | |
| 04/09/2026 | 99 | 81 | 16:06:02 | 56 | 4:50:03 | 61 | 73 | 4:50:03 | 34 | 16:05:00 | 59 | 0 | 153 | 6.4 | 123 | 589 | 81 | 15:17:03 | 59 | 6:27:04 | 60 | 75 | 16:47:03 | 62 | 7:29:05 | 62 | 18.5 | 19.67 | 8.5 | |
| 04/10/2026 | 100 | 85 | 14:54:02 | 58 | 4:21:00 | 63 | 79 | 6:19:02 | 31 | 14:59:02 | 72 | 0 | 75 | 3.1 | 139 | 593 | 84 | 15:47:05 | 62 | 6:41:02 | 62 | 79 | 16:50:02 | 64 | 7:19:00 | 64 | 21.5 | 22.71 | 11.5 | |
| 04/11/2026 | 101 | 87 | 14:40:05 | 59 | 5:38:05 | 65 | 87 | 5:42:00 | 33 | 16:03:03 | 79 | 0 | 82 | 3.4 | 159 | 517 | 85 | 15:22:03 | 65 | 6:35:05 | 65 | 79 | 16:06:04 | 66 | 7:19:01 | 66 | 23 | 24.24 | 13 | |
| 04/12/2026 | 102 | 87 | 14:31:00 | 59 | 5:38:00 | 65 | 87 | 5:52:03 | 31 | 14:54:02 | 77 | 0 | 224 | 9.3 | 176 | 520 | 82 | 15:14:02 | 65 | 6:25:04 | 65 | 77 | 16:25:04 | 67 | 7:21:00 | 67 | 23 | 24.27 | 13 | |
| 04/13/2026 | 103 | 84 | 13:00:04 | 69 | 4:16:02 | 70 | 81 | 5:54:02 | 48 | 17:28:01 | 80 | 0 | 216 | 9.0 | 176 | 395 | 82 | 13:38:03 | 70 | 7:03:04 | 70 | 78 | 16:05:04 | 70 | 7:30:00 | 71 | 26.5 | 27.3 | 16.5 | |
| 04/14/2026 | 104 | 87 | 14:30:05 | 67 | 5:46:05 | 70 | 85 | 5:48:00 | 41 | 16:13:02 | 81 | 0 | 210 | 8.8 | 187 | 564 | 85 | 15:22:00 | 69 | 6:27:00 | 69 | 81 | 16:40:05 | 70 | 7:25:01 | 70 | 27 | 27.33 | 17 | |
| 04/15/2026 | 105 | 89 | 15:36:01 | 66 | 4:47:03 | 70 | 81 | 4:48:05 | 32 | 14:47:04 | 75 | 0 | 233 | 9.7 | 183 | 587 | 87 | 15:11:05 | 70 | 6:24:03 | 70 | 82 | 16:17:02 | 71 | 7:29:02 | 71 | 27.5 | 27.36 | 17.5 | |
| 04/16/2026 | 106 | 89 | 13:38:03 | 68 | 5:09:03 | 71 | 85 | 5:09:04 | 36 | 13:33:03 | 79 | 0 | 162 | 6.7 | 194 | 484 | 87 | 14:42:02 | 72 | 6:26:00 | 72 | 82 | 15:33:05 | 72 | 7:32:05 | 72 | 28.5 | 27.39 | 18.5 | |
| 04/17/2026 | 107 | 91 | 13:39:00 | 66 | 4:58:03 | 71 | 92 | 5:12:03 | 38 | 13:39:03 | 81 | 0 | 221 | 9.2 | 181 | 511 | 86 | 14:42:02 | 71 | 5:38:02 | 71 | 82 | 16:39:00 | 72 | 7:08:00 | 72 | 28.5 | 27.42 | 18.5 | |
| 04/18/2026 | 108 | 79 | 9:27:05 | 52 | 21:31:00 | 70 | 94 | 12:30:02 | 61 | 9:31:03 | 79 | 0.14 | 220 | 9.2 | 268 | 205 | 77 | 14:47:05 | 63 | 23:59:03 | 72 | 77 | 0:00:00 | 66 | 23:59:03 | 73 | 15.5 | 16.95 | 5.5 | |
| 04/19/2026 | 109 | 72 | 15:54:04 | 49 | 5:38:01 | 51 | 96 | 2:39:04 | 24 | 16:36:02 | 88 | 0 | 110 | 4.6 | 358 | 611 | 76 | 15:53:03 | 59 | 6:29:02 | 59 | 73 | 16:56:05 | 62 | 7:44:02 | 62 | 10.5 | 11.98 | 0.5 | |
| 04/20/2026 | 110 | 80 | 16:14:03 | 45 | 4:09:04 | 58 | 93 | 5:54:03 | 21 | 15:33:03 | 70 | 0 | 67 | 2.8 | 164 | 608 | 80 | 15:50:04 | 57 | 6:25:01 | 58 | 76 | 17:18:04 | 61 | 6:54:03 | 61 | 12.5 | 14 | 2.5 | |
| 04/21/2026 | 111 | 83 | 14:46:02 | 49 | 4:31:00 | 60 | 89 | 5:09:00 | 16 | 14:34:01 | 67 | 0 | 134 | 5.6 | 177 | 486 | 77 | 15:35:00 | 60 | 6:20:01 | 60 | 74 | 17:19:03 | 63 | 7:01:00 | 63 | 16 | 17.53 | 6 | |
| 04/22/2026 | 112 | 86 | 14:16:05 | 57 | 5:24:04 | 67 | 83 | 5:25:05 | 24 | 13:24:02 | 62 | 0 | 138 | 5.8 | 152 | 549 | 83 | 15:18:04 | 64 | 6:08:00 | 65 | 78 | 16:58:02 | 66 | 6:55:05 | 66 | 21.5 | 23.06 | 11.5 | |
| 04/23/2026 | 113 | 89 | 14:37:03 | 67 | 5:30:02 | 68 | 83 | 6:01:04 | 28 | 13:30:02 | 81 | 0 | 240 | 10.0 | 165 | 560 | 86 | 15:15:05 | 69 | 6:23:01 | 69 | 81 | 16:42:04 | 69 | 7:17:00 | 69 | 28 | 27.59 | 18 | |
| 04/24/2026 | 114 | 85 | 11:10:05 | 62 | 13:23:05 | 69 | 96 | 23:59:02 | 50 | 11:16:01 | 84 | 1.04 | 217 | 9.0 | 146 | 247 | 80 | 12:04:00 | 67 | 23:59:04 | 70 | 76 | 12:43:00 | 68 | 23:59:03 | 71 | 23.5 | 25.11 | 13.5 | |
| 04/25/2026 | 115 | 81 | 15:54:04 | 62 | 5:05:04 | 64 | 99 | 6:09:00 | 60 | 16:29:04 | 97 | 0.29 | 67 | 2.8 | 101 | 508 | 82 | 15:41:01 | 65 | 6:02:05 | 65 | 78 | 17:10:00 | 67 | 7:07:05 | 67 | 21.5 | 23.14 | 11.5 | |
| 04/26/2026 | 116 | 84 | 14:33:02 | 67 | 5:28:03 | 69 | 97 | 4:52:04 | 54 | 14:44:05 | 92 | 0.12 | 120 | 5.0 | 143 | 570 | 84 | 14:48:00 | 70 | 6:36:05 | 70 | 79 | 15:38:03 | 70 | 7:16:02 | 70 | 25.5 | 27.17 | 15.5 | |
| 04/27/2026 | 117 | 85 | 14:40:01 | 72 | 5:21:04 | 73 | 94 | 5:22:03 | 70 | 14:41:02 | 92 | 0 | 250 | 10.4 | 175 | 357 | 78 | 15:35:01 | 72 | 6:05:05 | 72 | 76 | 16:30:04 | 72 | 6:37:03 | 72 | 28.5 | 27.69 | 18.5 | |
| 04/28/2026 | 118 | 81 | 12:38:00 | 69 | 21:43:05 | 73 | 96 | 21:24:02 | 64 | 22:06:01 | 89 | 0.31 | 212 | 8.8 | 184 | 194 | 77 | 13:05:04 | 71 | 23:51:02 | 72 | 75 | 13:51:02 | 72 | 0:00:00 | 72 | 25 | 26.72 | 15 | |
| 04/29/2026 | 119 | 73 | 0:12:05 | 63 | 23:53:01 | 71 | 96 | 4:05:02 | 77 | 13:35:04 | 94 | 0.01 | 169 | 7.1 | 359 | 228 | 73 | 13:35:04 | 67 | 23:57:02 | 71 | 72 | 14:18:04 | 68 | 23:58:02 | 71 | 18 | 19.74 | 8 | |
| 04/30/2026 | 120 | 68 | 12:32:02 | 59 | 23:55:00 | 59 | 93 | 2:42:05 | 55 | 13:07:01 | 78 | 0.07 | 181 | 7.5 | 25 | 393 | 70 | 13:16:02 | 63 | 23:57:02 | 64 | 69 | 13:57:03 | 65 | 23:58:05 | 66 | 13.5 | 15.26 | 3.5 | |
| 05/01/2026 | 121 | 64 | 14:31:00 | 56 | 5:24:05 | 57 | 87 | 18:58:04 | 56 | 13:51:05 | 79 | 0 | 120 | 5.0 | 20 | 190 | 64 | 16:11:05 | 60 | 23:59:03 | 60 | 65 | 0:00:00 | 62 | 23:59:02 | 63 | 10 | 11.79 | 0 | |
| 05/02/2026 | 122 | 73 | 14:17:05 | 52 | 5:43:02 | 56 | 86 | 0:00:00 | 28 | 14:47:03 | 72 | 0 | 112 | 4.7 | 344 | 654 | 76 | 15:21:04 | 57 | 6:35:02 | 57 | 72 | 16:50:01 | 59 | 7:04:01 | 59 | 12.5 | 14.31 | 2.5 | |
| 05/03/2026 | 123 | 78 | 15:53:00 | 51 | 1:56:01 | 57 | 90 | 1:38:04 | 33 | 14:59:02 | 65 | 0 | 119 | 4.9 | 165 | 683 | 81 | 15:34:05 | 58 | 6:14:04 | 58 | 76 | 17:03:03 | 60 | 6:57:05 | 60 | 14.5 | 16.33 | 4.5 | |
| 05/04/2026 | 124 | 80 | 14:00:04 | 59 | 5:14:03 | 63 | 81 | 5:31:01 | 36 | 11:39:02 | 74 | 0 | 216 | 9.0 | 199 | 662 | 81 | 15:20:00 | 62 | 6:23:02 | 63 | 77 | 16:42:04 | 65 | 7:05:02 | 65 | 19.5 | 21.36 | 9.5 | |
| 05/05/2026 | 125 | 77 | 17:36:05 | 61 | 5:29:05 | 65 | 91 | 14:40:04 | 65 | 0:03:05 | 75 | 0 | 280 | 11.7 | 178 | 228 | 73 | 16:47:01 | 65 | 6:16:00 | 66 | 72 | 17:54:01 | 67 | 7:04:00 | 67 | 19 | 20.88 | 9 | |
| Average | 80.83 | 59.13 | 63.97 | 87.6 | 40.97 | 77.67 | 0.07 | 165.33 | 481.3 | 79.2 | 63.93 | 64.7 | 75.67 | 65.67 | 66.2 | 19.98 | 21.07 | 10.02 | ||||||||||||
| Total | 1.98 | 599.5 | 632.13 | 300.5 |